createdAt,value
2023-03-11T00:06:13.672Z,97650.51
2023-03-11T00:14:34.085Z,97643.66
2023-03-11T00:24:00.697Z,97635.98
2023-03-11T00:37:09.848Z,97613.27
2023-03-11T00:40:39.032Z,97610.10
2023-03-11T00:44:25.968Z,97606.73
2023-03-11T00:48:07.383Z,97603.66
2023-03-11T00:52:07.817Z,97594.33
2023-03-11T01:08:21.737Z,97568.67
2023-03-11T01:12:11.623Z,97557.69
2023-03-11T01:15:41.078Z,97551.74
2023-03-11T01:24:25.280Z,97544.50
2023-03-11T01:28:09.293Z,97540.45
2023-03-11T01:36:58.372Z,97534.62
2023-03-11T01:40:50.227Z,97529.54
2023-03-11T01:49:31.010Z,97525.02
2023-03-11T01:53:04.681Z,97522.83
2023-03-11T01:56:47.978Z,97517.05
2023-03-11T02:00:07.535Z,97515.45
2023-03-11T02:05:33.047Z,97515.09
2023-03-11T02:09:26.448Z,97513.80
2023-03-11T02:13:19.969Z,97509.13
2023-03-11T02:16:34.344Z,97505.03
2023-03-11T02:20:51.729Z,97504.60
2023-03-11T02:28:41.073Z,97502.20
2023-03-11T02:32:49.362Z,97500.69
2023-03-11T02:37:17.590Z,97501.11
2023-03-11T02:41:06.917Z,97496.16
2023-03-11T02:45:02.382Z,97490.55
2023-03-11T02:49:39.155Z,97487.34
2023-03-11T02:53:12.927Z,97481.14
2023-03-11T03:06:29.193Z,97457.02
2023-03-11T03:10:10.715Z,97450.52
2023-03-11T03:13:46.451Z,97442.96
2023-03-11T03:17:43.608Z,97440.62
2023-03-11T03:27:17.786Z,97437.99
2023-03-11T03:30:50.362Z,97429.95
2023-03-11T03:35:06.721Z,97424.33
2023-03-11T03:39:47.112Z,97422.72
2023-03-11T03:44:05.637Z,97416.42
2023-03-11T03:53:38.855Z,97401.30
2023-03-11T03:57:31.242Z,97391.86
2023-03-11T04:06:03.133Z,97380.75
2023-03-11T04:09:51.664Z,97372.54
2023-03-11T04:14:11.243Z,97367.70
2023-03-11T04:18:31.916Z,97363.11
2023-03-11T04:32:37.160Z,97342.90
2023-03-11T04:43:11.078Z,97332.59
2023-03-11T04:47:03.823Z,97327.59
2023-03-11T04:51:08.273Z,97324.90
2023-03-11T04:54:48.302Z,97313.48
2023-03-11T04:58:31.407Z,97302.20
2023-03-11T05:02:19.790Z,97295.75
2023-03-11T05:06:32.471Z,97291.23
2023-03-11T05:10:04.654Z,97289.60
2023-03-11T05:18:20.054Z,97273.33
2023-03-11T05:21:39.738Z,97263.60
2023-03-11T05:29:09.187Z,97248.23
2023-03-11T05:32:35.764Z,97248.05
2023-03-11T05:41:27.777Z,97239.92
2023-03-11T05:55:40.272Z,97242.59
2023-03-11T06:11:06.157Z,97216.97
2023-03-11T06:15:28.184Z,97217.29
2023-03-11T06:19:21.706Z,97213.95
2023-03-11T06:37:50.227Z,97205.33
2023-03-11T06:41:19.915Z,97198.03
2023-03-11T06:56:34.377Z,97163.52
2023-03-11T07:32:21.278Z,97127.30
2023-03-11T07:35:23.608Z,97119.45
2023-03-11T07:38:41.796Z,97115.13
2023-03-11T07:41:48.671Z,97104.14
2023-03-11T07:45:00.618Z,97099.33
2023-03-11T07:48:03.899Z,97093.08
2023-03-11T07:51:16.576Z,97076.69
2023-03-11T07:54:26.646Z,97069.91
2023-03-11T07:57:29.222Z,97064.77
2023-03-11T08:00:39.321Z,97059.27
2023-03-11T08:03:45.488Z,97055.32
2023-03-11T08:06:51.766Z,97051.74
2023-03-11T08:10:30.526Z,97051.02
2023-03-11T08:14:02.361Z,97035.67
2023-03-11T08:18:22.623Z,97025.30
2023-03-11T08:26:47.581Z,97025.93
2023-03-11T08:30:42.939Z,97013.74
2023-03-11T08:34:19.060Z,97007.38
2023-03-11T08:37:59.782Z,97003.22
2023-03-11T08:41:45.874Z,96999.58
2023-03-11T08:45:06.753Z,96997.84
2023-03-11T08:52:40.338Z,96998.98
2023-03-11T08:56:15.512Z,96994.95
2023-03-11T08:59:36.365Z,96993.58
2023-03-11T09:02:44.269Z,96996.90
2023-03-11T09:05:47.542Z,96983.60
2023-03-11T09:21:11.376Z,96938.27
2023-03-11T09:24:15.132Z,96936.88
2023-03-11T09:27:22.746Z,96933.10
2023-03-11T09:30:25.799Z,96921.13
2023-03-11T09:33:52.827Z,96912.58
2023-03-11T09:36:56.999Z,96910.73
2023-03-11T09:40:08.179Z,96899.54
2023-03-11T09:43:27.150Z,96888.69
2023-03-11T09:47:03.648Z,96875.88
2023-03-11T09:50:23.415Z,96877.02
2023-03-11T09:53:43.496Z,96864.02
2023-03-11T09:56:55.545Z,96851.90
2023-03-11T10:00:05.235Z,96850.86
2023-03-11T10:05:21.821Z,96851.58
2023-03-11T10:09:23.764Z,96848.33
2023-03-11T10:13:17.243Z,96843.67
2023-03-11T10:17:28.413Z,96841.55
2023-03-11T10:21:25.524Z,96832.52
2023-03-11T10:35:39.843Z,96822.90
2023-03-11T10:39:34.366Z,96808.83
2023-03-11T10:43:21.886Z,96799.66
2023-03-11T10:46:37.187Z,96795.70
2023-03-11T10:49:58.956Z,96790.85
2023-03-11T10:53:40.348Z,96788.17
2023-03-11T10:57:00.786Z,96783.52
2023-03-11T11:00:17.448Z,96776.41
2023-03-11T11:09:19.228Z,96748.98
2023-03-11T11:13:19.701Z,96740.30
2023-03-11T11:16:38.457Z,96737.94
2023-03-11T11:20:19.346Z,96727.30
2023-03-11T11:24:02.471Z,96721.33
2023-03-11T11:27:48.940Z,96722.36
2023-03-11T11:36:11.718Z,96706.61
2023-03-11T11:40:21.549Z,96702.16
2023-03-11T11:44:16.583Z,96702.65
2023-03-11T11:48:04.591Z,96689.09
2023-03-11T12:09:58.130Z,96680.39
2023-03-11T12:14:10.434Z,96677.34
2023-03-11T12:17:32.612Z,96675.27
2023-03-11T12:21:02.029Z,96668.61
2023-03-11T12:24:07.982Z,96670.16
2023-03-11T12:27:38.001Z,96670.03
2023-03-11T12:30:57.608Z,96670.66
2023-03-11T12:34:08.423Z,96664.42
2023-03-11T12:37:21.040Z,96661.50
2023-03-11T12:40:46.326Z,96659.94
2023-03-11T12:43:57.244Z,96652.75
2023-03-11T12:47:33.311Z,96651.59
2023-03-11T12:50:45.504Z,96644.31
2023-03-11T12:54:05.682Z,96640.93
2023-03-11T12:57:32.115Z,96633.39
2023-03-11T13:01:15.081Z,96629.98
2023-03-11T13:05:09.272Z,96630.52
2023-03-11T13:09:06.564Z,96626.54
2023-03-11T13:12:56.336Z,96627.06
2023-03-11T13:16:25.684Z,96620.89
2023-03-11T13:19:53.753Z,96623.94
2023-03-11T13:23:00.856Z,96624.38
2023-03-11T13:26:42.408Z,96620.00
2023-03-11T13:30:05.079Z,96611.85
2023-03-11T13:33:14.089Z,96609.40
2023-03-11T13:40:53.050Z,96606.42
2023-03-11T13:44:37.100Z,96598.99
2023-03-11T13:47:47.255Z,96593.19
2023-03-11T13:51:06.518Z,96589.98
2023-03-11T13:54:23.589Z,96594.25
2023-03-11T13:57:36.219Z,96587.11
2023-03-11T14:05:08.237Z,96578.25
2023-03-11T14:08:28.850Z,96578.94
2023-03-11T14:11:45.362Z,96575.45
2023-03-11T14:15:04.978Z,96576.55
2023-03-11T14:18:28.142Z,96576.88
2023-03-11T14:21:31.903Z,96571.88
2023-03-11T14:24:49.015Z,96570.56
2023-03-11T14:28:02.806Z,96568.00
2023-03-11T14:31:30.684Z,96569.91
2023-03-11T14:34:40.003Z,96567.48
2023-03-11T14:37:45.761Z,96569.09
2023-03-11T14:40:58.452Z,96571.23
2023-03-11T14:44:11.221Z,96572.31
2023-03-11T14:47:42.560Z,96571.00
2023-03-11T14:50:57.604Z,96577.31
2023-03-11T14:54:35.804Z,96570.00
2023-03-11T14:58:08.590Z,96568.98
2023-03-11T15:01:57.126Z,96562.16
2023-03-11T15:09:57.136Z,96560.98
2023-03-11T15:13:34.135Z,96559.22
2023-03-11T15:17:33.061Z,96554.77
2023-03-11T15:21:53.653Z,96548.27
2023-03-11T15:25:32.368Z,96551.77
2023-03-11T15:29:56.830Z,96553.10
2023-03-11T15:33:35.518Z,96556.96
2023-03-11T15:37:15.116Z,96566.70
2023-03-11T15:40:44.897Z,96570.33
2023-03-11T15:43:51.404Z,96569.32
2023-03-11T15:46:59.681Z,96574.11
2023-03-11T15:50:24.814Z,96577.33
2023-03-11T15:53:35.593Z,96573.41
2023-03-11T15:56:43.218Z,96573.11
2023-03-11T15:59:53.265Z,96573.34
2023-03-11T16:02:56.871Z,96572.45
2023-03-11T16:06:06.156Z,96573.88
2023-03-11T16:09:12.089Z,96571.20
2023-03-11T16:12:29.297Z,96570.41
2023-03-11T16:15:43.390Z,96569.13
2023-03-11T16:18:54.515Z,96565.64
2023-03-11T16:22:02.267Z,96560.63
2023-03-11T16:25:37.957Z,96564.42
2023-03-11T16:28:46.061Z,96568.98
2023-03-11T16:31:54.885Z,96570.52
2023-03-11T16:35:02.235Z,96572.14
2023-03-11T16:38:09.378Z,96576.66
2023-03-11T16:41:13.276Z,96572.42
2023-03-11T16:44:22.063Z,96573.36
2023-03-11T16:47:30.625Z,96575.96
2023-03-11T16:50:39.564Z,96573.67
2023-03-11T16:53:42.193Z,96573.69
2023-03-11T16:56:53.792Z,96570.11
2023-03-11T17:00:00.440Z,96570.73
2023-03-11T17:03:05.363Z,96570.77
2023-03-11T17:06:16.265Z,96573.79
2023-03-11T17:09:23.329Z,96576.22
2023-03-11T17:12:28.871Z,96575.92
2023-03-11T17:15:36.861Z,96571.33
2023-03-11T17:18:43.716Z,96568.86
2023-03-11T17:21:47.959Z,96565.81
2023-03-11T17:24:52.438Z,96569.83
2023-03-11T17:28:00.255Z,96563.95
2023-03-11T17:31:31.423Z,96558.87
2023-03-11T17:34:38.970Z,96553.52
2023-03-11T17:37:50.759Z,96560.41
2023-03-11T17:41:20.560Z,96558.14
2023-03-11T17:44:53.660Z,96566.59
2023-03-11T17:48:51.731Z,96562.65
2023-03-11T17:51:54.563Z,96559.55
2023-03-11T17:55:13.514Z,96553.50
2023-03-11T17:58:26.238Z,96543.77
2023-03-11T18:04:49.085Z,96539.89
2023-03-11T18:08:03.579Z,96536.77
2023-03-11T18:11:24.329Z,96529.76
2023-03-11T18:14:38.975Z,96527.56
2023-03-11T18:17:52.536Z,96529.73
2023-03-11T18:21:02.279Z,96525.61
2023-03-11T18:24:14.608Z,96523.56
2023-03-11T18:27:24.944Z,96526.33
2023-03-11T18:30:29.989Z,96532.89
2023-03-11T18:33:39.910Z,96535.00
2023-03-11T18:36:49.401Z,96544.41
2023-03-11T18:39:58.027Z,96543.23
2023-03-11T18:43:10.782Z,96546.31
2023-03-11T18:46:23.162Z,96544.27
2023-03-11T18:49:31.669Z,96540.27
2023-03-11T18:52:49.977Z,96545.31
2023-03-11T18:56:04.462Z,96547.27
2023-03-11T18:59:17.818Z,96549.85
2023-03-11T19:02:39.791Z,96552.65
2023-03-11T19:06:10.278Z,96554.79
2023-03-11T19:09:28.570Z,96555.69
2023-03-11T19:12:40.957Z,96562.39
2023-03-11T19:15:53.575Z,96563.69
2023-03-11T19:19:03.097Z,96562.00
2023-03-11T19:22:16.131Z,96567.62
2023-03-11T19:25:28.149Z,96564.14
2023-03-11T19:28:43.977Z,96561.03
2023-03-11T19:32:10.407Z,96552.85
2023-03-11T19:35:36.435Z,96551.24
2023-03-11T19:38:45.970Z,96555.83
2023-03-11T19:51:50.167Z,96548.52
2023-03-11T19:56:24.745Z,96550.60
2023-03-11T20:05:27.513Z,96572.84
2023-03-11T20:25:51.192Z,96591.03
2023-03-11T20:30:51.537Z,96587.81
2023-03-11T21:48:13.525Z,96608.83
2023-03-11T21:51:50.696Z,96611.12
2023-03-11T21:55:31.140Z,96611.06
2023-03-11T21:59:08.595Z,96613.80
2023-03-11T22:05:54.714Z,96624.36
2023-03-11T22:09:31.247Z,96630.42
2023-03-11T22:29:15.666Z,96663.90
2023-03-11T22:38:42.607Z,96660.69
2023-03-11T22:56:47.583Z,96707.49
2023-03-11T23:04:36.662Z,96716.42
2023-03-11T23:07:51.976Z,96713.83
2023-03-11T23:15:47.427Z,96709.77
2023-03-11T23:19:43.014Z,96690.63
2023-03-11T23:23:36.265Z,96701.32
2023-03-11T23:37:57.753Z,96704.24
2023-03-11T23:42:24.431Z,96712.53
2023-03-11T23:46:02.101Z,96709.27
2023-03-11T23:50:27.596Z,96714.19
